River Of Ponds, Canada
Current Conditions -  °F | °C
As of 9:00 PM on Friday 28 Nov 2014 (Local Time) from CWDH Reporting Station
Broken Clouds Broken Clouds  
Wind Chill: -5°   Ceiling: 2400
Heat Index: -5°   Visibility: 9mi
Dew Point: -9°   Wind: 2mph
Humidity: 73%   Direction: 80°E
Pressure: 29.9"   Gusts: NA
Location:  50.53°N, 57.38°W
Report Text: CWDH 290000Z AUTO 08002KT 9SM BKN024 M05/M09 A2990 RMK SLP128 T10521093 11038 21053 70002 WSI/SWOB
Loading
Personal Weather Stations






























Interactive Weather Map New forecast layout! Learn more

10-Day Weather Forecast

Advertisements
Track Severe Weather on mobile